Scroll down
FLIGHT INFORMATION
Delta Air Lines

DAL243

At Arrival Gate

KBOS
 KMIA
DATE: 2020-02-13
GATE:  -
GATE DEPARTURE: 03:06
TAKEOFF: 03:20
DATE: 2020-02-13
GATE:  -
LANDING: 06:21
GATE ARRIVAL: 06:31
FLIGHT DATA
Crew: 
Speed: 
481 kts
Altitude: 
36,011 ft
Stage Length: 
1,095.0 nm
Block Time: 
3.4 hrs
Flight Time: 
3 hrs
Fuel Used: 
18,345 lb
Cleared Route: 
TRACK DATA
50,000 ft 1,000 kts
AIRCRAFT INFO AND CUMULATIVE STATS
Aircraft Type: 
B739ERSSW
Registration: 
SELCAL: 
MSN/LN: 
31961 / 5694
Operator: 
Total Flights: 
21
Total Block Time: 
57.9 hrs
Total Flight Time: 
50.5 hrs
Total Fuel Time: 
259,016 lb
DATALINK LOG | Newest first | Current as of: 2020-12-02 21:02:42
LABEL SEQUENCE CONTENT Dn/Up
QD311306:31 7.6▼ Dn
QC211206:21▼ Dn
2U3034KMIA 130453Z 12008KT 10SM FEW018 25/21 A3009 RMK AO2 SLP190 T02500206 402890233▲ Up
2S3034KMIA▼ Dn
2U0749KMIA 130453Z 12008KT 10SM FEW018 25/21 A3009 RMK AO2 SLP190 T02500206 402890233▲ Up
2S0749KMIA▼ Dn
QB202003:20▼ Dn
QA061903:06 25.9▼ Dn
A35448CLEARED TO KMIA VIA KBOS KMIA DAL243 N850DN . SQUAWK 2747.▲ Up
B35534KBOS KMIA DAL243 N850DN ▼ Dn
2U5235KBOS 130154Z 19008KT 10SM OVC130 05/M04 A3008 RMK AO2 SLP186 T00501044, VATSIM INJECTION▲ Up
2S5235KBOS▼ Dn
Q05045[LINK ACK]▲ Up
Q05004[LINK TEST]▼ Dn


AIRCRAFT HISTORY
FLIGHT DATE FLIGHT NO. ORIGIN DESTINATION CLEARED ROUTE BLOCK TIME FLIGHT TIME FUEL USED PILOT
2020-05-05DAL999KCLT TXKF 2.7 hrs2.1 hrs15,567 lbCharles Harris
2020-03-30DAL202KATL KCLT 1 hrs0.7 hrs6,094 lbPaul Gollnick
2020-03-22DAL322KMIA KATL 2 hrs1.6 hrs11,600 lbCharles Harris
2020-02-13DAL243KBOS KMIA 3.4 hrs3 hrs18,345 lbKyle Weber
2020-02-12DAL2533KLAX KBOS 4.9 hrs4.7 hrs30,512 lbKyle Weber
2020-02-08DAL5691KSAN KLAX 0.7 hrs0.5 hrs3,332 lbKyle Weber
2020-02-07DAL4504KLAX KSAN 0.7 hrs0.5 hrs3,921 lbKyle Weber
2020-01-19DAL5691KSAN KLAX 0.8 hrs0.5 hrs2,813 lbKyle Weber
2020-01-12DAL5691KLAX KSAN 0.7 hrs0.5 hrs3,605 lbKyle Weber
2020-01-11DAL4504KSAN KLAX 0.6 hrs0.4 hrs3,217 lbKyle Weber
2020-01-03DAL4504KSAN KSAN KSAN WNFLD GYWNN PADRZ CWARD MADOW SLI MERCE RW24R0.9 hrs0.5 hrs3,500 lbKyle Weber
2020-01-03DAL4504KLAX KSAN KLAX SLI DANAH OCN CARIF MZB KSAN0.9 hrs0.6 hrs3,599 lbKyle Weber
2019-12-31DAL4504KSAN KLAX KSAN WNFLD GYWNN PADRZ CWARD MADOW SLI MERCE RW24R0.7 hrs0.5 hrs3,823 lbKyle Weber
2019-12-25DAL886PHNL KSAN 16.6 hrs16.3 hrs33,137 lbJhan Jensen
2019-12-24DAL1515KPDX PHNL KPDX ONP HEMLO HEKAB HELOP HALLI AUNTI APACK PHNL5.7 hrs5.4 hrs31,381 lbJhan Jensen
2019-12-23DAL333KRNO KPDX KRNO FMG WNDEL LMT MOXEE PORTL KPDX1.9 hrs1.5 hrs10,976 lbCharles Harris
2019-12-17DAL333KPDX KRNO 1.8 hrs1.4 hrs10,147 lbCharles Harris
2019-12-14DAL1194KSLC KPDX 2.2 hrs1.8 hrs11,746 lbMichael Roth
2019-12-13DAL2795KMSP KSLC 2.8 hrs2.6 hrs16,027 lbMichael Roth
2019-11-25DAL1936KMIA KMSP 3.7 hrs3.5 hrs22,393 lbDan Downs
2019-11-22DAL2211TJSJ KMIA 2.9 hrs2.7 hrs16,780 lbCharles Harris